Time;durP1;ratioP1;P1;durP2;ratioP2;P2;SDS_P1;SDS_P2;PMS_P1;PMS_P2;Temp;Humidity;BMP_temperature;BMP_pressure;BME280_temperature;BME280_humidity;BME280_pressure;Samples;Min_cycle;Max_cycle;Signal;HPM_P1;HPM_P2
2023/12/05 00:00:06;;;;;;;29.03;10.03;;;3.10;99.90;;;;;;5047015;28;20197;-82
2023/12/05 00:02:32;;;;;;;32.50;10.30;;;3.20;99.90;;;;;;5064678;28;20657;-82
2023/12/05 00:04:57;;;;;;;32.50;9.70;;;3.10;99.90;;;;;;5065236;28;20196;-82
2023/12/05 00:07:25;;;;;;;30.77;9.60;;;3.20;99.90;;;;;;5066020;28;20200;-82
2023/12/05 00:09:54;;;;;;;30.83;10.05;;;3.20;99.90;;;;;;5067101;28;20541;-82
2023/12/05 00:12:19;;;;;;;32.38;9.77;;;3.10;99.90;;;;;;5048930;28;20169;-82
2023/12/05 00:14:45;;;;;;;34.97;10.53;;;3.20;99.90;;;;;;5067028;28;20189;-82
2023/12/05 00:17:14;;;;;;;31.70;10.50;;;3.20;99.90;;;;;;5064918;28;20192;-82
2023/12/05 00:19:40;;;;;;;30.38;9.20;;;3.20;99.90;;;;;;5064892;28;20449;-82
2023/12/05 00:22:06;;;;;;;27.77;8.75;;;3.20;99.90;;;;;;5066276;28;20157;-82
2023/12/05 00:24:32;;;;;;;29.37;9.30;;;3.30;99.90;;;;;;5067098;28;20712;-82
2023/12/05 00:26:57;;;;;;;33.70;8.97;;;3.30;99.90;;;;;;5067608;28;20168;-82
2023/12/05 00:29:24;;;;;;;30.55;8.95;;;3.30;99.90;;;;;;5067234;28;20166;-82
2023/12/05 00:31:49;;;;;;;26.23;8.70;;;3.30;99.90;;;;;;5068045;28;20211;-82
2023/12/05 00:34:21;;;;;;;29.63;8.80;;;3.30;99.90;;;;;;5048545;28;20689;-83
2023/12/05 00:36:49;;;;;;;28.75;8.30;;;3.30;99.90;;;;;;5065665;28;20176;-83
2023/12/05 00:44:16;;;;;;;30.65;9.90;;;3.40;99.90;;;;;;5022091;28;20210;-82
2023/12/05 00:46:42;;;;;;;28.97;9.10;;;3.30;99.90;;;;;;5024204;28;20579;-82
2023/12/05 00:49:08;;;;;;;27.55;8.30;;;3.40;99.90;;;;;;5021928;28;20610;-82
2023/12/05 00:51:37;;;;;;;30.80;9.20;;;3.40;99.90;;;;;;5022058;28;20186;-82
2023/12/05 00:54:03;;;;;;;31.85;9.43;;;3.40;99.90;;;;;;5024186;28;20182;-82
2023/12/05 00:56:28;;;;;;;29.07;8.90;;;3.40;99.90;;;;;;5023633;28;20171;-82
2023/12/05 00:58:57;;;;;;;27.37;8.03;;;3.40;99.90;;;;;;5024783;28;20222;-82
2023/12/05 01:01:23;;;;;;;27.73;8.25;;;3.50;99.90;;;;;;5024116;28;20166;-82
2023/12/05 01:03:51;;;;;;;29.42;7.65;;;3.50;99.90;;;;;;5023362;28;20206;-82
2023/12/05 01:06:17;;;;;;;28.83;8.95;;;3.50;99.90;;;;;;5022452;28;20186;-82
2023/12/05 01:08:43;;;;;;;29.55;8.48;;;3.50;99.90;;;;;;5023703;28;20183;-82
2023/12/05 01:11:12;;;;;;;32.60;9.63;;;3.50;99.90;;;;;;5023542;28;20173;-82
2023/12/05 01:13:38;;;;;;;27.00;9.00;;;3.50;99.90;;;;;;5024418;28;20186;-82
2023/12/05 01:16:04;;;;;;;29.13;8.35;;;3.50;99.90;;;;;;5023648;28;20575;-82
2023/12/05 01:18:30;;;;;;;29.17;8.95;;;3.50;99.90;;;;;;5024678;28;20221;-81
2023/12/05 01:20:56;;;;;;;26.90;7.87;;;3.50;99.90;;;;;;5025368;28;20213;-82
2023/12/05 01:23:21;;;;;;;29.17;9.37;;;3.50;99.90;;;;;;5023853;28;20170;-83
2023/12/05 01:25:47;;;;;;;30.60;8.33;;;3.50;99.90;;;;;;5024043;28;20169;-82
2023/12/05 01:28:12;;;;;;;28.23;9.00;;;3.50;99.90;;;;;;5022544;28;20166;-82
2023/12/05 01:30:38;;;;;;;28.00;9.10;;;3.50;99.90;;;;;;5022554;28;20171;-82
2023/12/05 01:33:04;;;;;;;28.80;9.60;;;3.50;99.90;;;;;;5021856;28;20184;-82
2023/12/05 01:35:30;;;;;;;28.13;10.00;;;3.50;99.90;;;;;;5023436;28;20185;-82
2023/12/05 01:37:55;;;;;;;30.80;8.67;;;3.50;99.90;;;;;;5023785;28;20694;-82
2023/12/05 01:40:21;;;;;;;31.83;10.13;;;3.50;99.90;;;;;;5022819;28;20258;-82
2023/12/05 01:42:47;;;;;;;27.63;8.97;;;3.50;99.90;;;;;;5023332;28;20178;-82
2023/12/05 01:45:13;;;;;;;29.10;9.27;;;3.50;99.90;;;;;;5023605;28;20432;-82
2023/12/05 01:47:40;;;;;;;28.90;9.57;;;3.60;99.90;;;;;;5024202;28;20165;-82
2023/12/05 01:50:10;;;;;;;31.60;9.80;;;3.60;99.90;;;;;;5023716;28;20249;-82
2023/12/05 01:52:39;;;;;;;27.88;8.75;;;3.60;99.90;;;;;;5025312;28;20166;-82
2023/12/05 01:55:07;;;;;;;31.60;9.45;;;3.50;99.90;;;;;;5024539;28;20202;-82
2023/12/05 01:57:34;;;;;;;30.50;10.27;;;3.50;99.90;;;;;;5025322;28;20162;-82
2023/12/05 02:00:00;;;;;;;33.42;10.38;;;3.50;99.90;;;;;;5025240;28;20186;-82
2023/12/05 02:02:26;;;;;;;29.77;9.05;;;3.60;99.90;;;;;;5026381;28;20655;-82
2023/12/05 02:04:51;;;;;;;27.67;9.50;;;3.60;99.90;;;;;;5025873;28;20187;-82
2023/12/05 02:07:18;;;;;;;32.03;8.90;;;3.60;99.90;;;;;;5027110;28;20406;-82
2023/12/05 02:09:44;;;;;;;29.58;9.25;;;3.60;99.90;;;;;;5026711;28;20437;-82
2023/12/05 02:12:10;;;;;;;28.25;8.65;;;3.60;99.90;;;;;;5008793;28;20178;-82
2023/12/05 02:14:36;;;;;;;30.50;9.03;;;3.60;99.90;;;;;;5025680;28;20194;-82
2023/12/05 02:17:21;;;;;;;30.33;9.65;;;3.60;99.90;;;;;;5025509;28;20402;-82
2023/12/05 02:22:29;;;;;;;28.80;9.05;;;3.60;99.90;;;;;;5062999;28;20227;-83
2023/12/05 02:25:23;;;;;;;33.35;9.80;;;3.70;99.90;;;;;;5065906;28;20185;-83
2023/12/05 02:27:49;;;;;;;28.88;8.98;;;3.70;99.90;;;;;;5065626;28;20154;-83
2023/12/05 02:30:16;;;;;;;30.75;9.88;;;3.60;99.90;;;;;;5065529;28;20170;-83
2023/12/05 02:32:42;;;;;;;28.58;9.63;;;3.70;99.90;;;;;;5066182;28;20161;-83
2023/12/05 02:35:08;;;;;;;28.97;9.00;;;3.60;99.90;;;;;;5066256;28;20187;-83
2023/12/05 02:37:58;;;;;;;30.75;10.15;;;3.70;99.90;;;;;;5065439;28;20400;-83
2023/12/05 02:40:38;;;;;;;30.23;9.10;;;3.70;99.90;;;;;;5064046;28;20193;-83
2023/12/05 02:43:11;;;;;;;29.92;8.52;;;3.70;99.90;;;;;;5065456;28;20157;-83
2023/12/05 02:45:39;;;;;;;27.58;8.13;;;3.70;99.90;;;;;;5065534;28;20177;-84
2023/12/05 02:48:09;;;;;;;28.08;8.90;;;3.70;99.90;;;;;;5063864;28;20167;-83
2023/12/05 02:50:34;;;;;;;30.17;8.68;;;3.70;99.90;;;;;;5065161;28;20157;-83
2023/12/05 02:53:00;;;;;;;32.40;8.60;;;3.70;99.90;;;;;;5065182;28;20176;-83
2023/12/05 02:55:26;;;;;;;30.07;8.80;;;3.80;99.90;;;;;;5064959;28;20193;-83
2023/12/05 02:57:51;;;;;;;27.77;9.30;;;3.80;99.90;;;;;;5065447;28;20591;-83
2023/12/05 03:00:17;;;;;;;27.70;8.67;;;3.80;99.90;;;;;;5064745;28;20196;-83
2023/12/05 03:02:52;;;;;;;31.40;9.27;;;3.80;99.90;;;;;;5063179;28;20415;-84
2023/12/05 03:05:18;;;;;;;29.15;8.20;;;3.80;99.90;;;;;;5064954;28;20454;-84
2023/12/05 03:07:43;;;;;;;30.80;8.17;;;3.80;99.90;;;;;;5063040;28;20169;-84
2023/12/05 03:10:12;;;;;;;29.20;7.97;;;3.80;99.90;;;;;;5063202;28;20180;-84
2023/12/05 03:12:38;;;;;;;32.22;8.50;;;3.80;99.90;;;;;;5064890;28;20185;-84
2023/12/05 03:15:07;;;;;;;28.23;7.43;;;3.80;99.90;;;;;;5064461;28;20196;-83
2023/12/05 03:17:32;;;;;;;29.60;8.60;;;3.90;99.90;;;;;;5063643;28;20169;-83
2023/12/05 03:19:58;;;;;;;27.90;7.80;;;3.90;99.90;;;;;;5065499;28;20196;-83
2023/12/05 03:22:24;;;;;;;29.70;8.17;;;3.90;99.90;;;;;;5104396;28;20293;-82
2023/12/05 03:24:50;;;;;;;30.17;8.00;;;3.90;99.90;;;;;;5103637;28;20406;-82
2023/12/05 03:27:16;;;;;;;29.30;8.45;;;3.90;99.90;;;;;;5102290;28;20156;-82
2023/12/05 03:29:41;;;;;;;29.13;7.90;;;3.90;99.90;;;;;;5088266;28;20177;-82
2023/12/05 03:32:07;;;;;;;29.53;9.10;;;3.90;99.90;;;;;;5106384;28;20405;-82
2023/12/05 03:34:33;;;;;;;31.57;8.73;;;3.90;99.90;;;;;;5106020;28;20194;-82
2023/12/05 03:37:01;;;;;;;29.50;7.80;;;3.90;99.90;;;;;;5106752;28;20408;-82
2023/12/05 03:39:27;;;;;;;28.70;8.73;;;4.00;99.90;;;;;;5106412;28;20184;-82
2023/12/05 03:41:53;;;;;;;29.23;7.63;;;4.00;99.90;;;;;;5106223;28;20163;-82
2023/12/05 03:44:21;;;;;;;28.00;7.00;;;4.00;99.90;;;;;;5107302;28;20516;-82
2023/12/05 03:46:47;;;;;;;30.65;8.25;;;4.00;99.90;;;;;;5106682;28;20247;-82
2023/12/05 03:49:13;;;;;;;32.43;8.90;;;4.00;99.90;;;;;;5107430;28;20164;-82
2023/12/05 03:51:38;;;;;;;28.70;7.73;;;4.00;99.90;;;;;;5107440;28;20164;-82
2023/12/05 03:54:04;;;;;;;31.47;7.73;;;4.00;99.90;;;;;;5108234;28;20179;-82
2023/12/05 03:56:30;;;;;;;28.03;6.70;;;4.00;99.90;;;;;;5106947;28;20163;-82
2023/12/05 03:58:56;;;;;;;27.13;6.20;;;4.10;99.90;;;;;;5088168;28;20168;-82
2023/12/05 04:01:21;;;;;;;29.20;7.67;;;4.10;99.90;;;;;;5106654;28;20400;-82
2023/12/05 04:03:47;;;;;;;28.10;8.20;;;4.10;99.90;;;;;;5107199;28;20175;-82
2023/12/05 04:06:23;;;;;;;32.73;8.13;;;4.10;99.90;;;;;;5108204;28;20167;-82
2023/12/05 04:08:49;;;;;;;28.65;7.90;;;4.10;99.90;;;;;;5107609;28;20163;-82
2023/12/05 04:11:15;;;;;;;28.77;6.95;;;4.10;99.90;;;;;;5108166;28;20182;-82
2023/12/05 04:13:41;;;;;;;27.55;7.80;;;4.10;99.90;;;;;;5090251;28;20187;-82
2023/12/05 04:16:07;;;;;;;29.08;7.50;;;4.20;99.90;;;;;;5107974;28;20190;-82
2023/12/05 04:18:33;;;;;;;32.53;7.75;;;4.20;99.90;;;;;;5106819;28;20172;-82
2023/12/05 04:20:59;;;;;;;28.00;7.10;;;4.20;99.90;;;;;;5107359;28;20301;-82
2023/12/05 04:23:28;;;;;;;28.23;7.50;;;4.20;99.90;;;;;;5106571;28;20159;-82
2023/12/05 04:25:53;;;;;;;29.75;7.45;;;4.20;99.90;;;;;;5108121;28;20175;-82
2023/12/05 04:28:19;;;;;;;28.67;7.23;;;4.20;99.90;;;;;;5108362;28;20164;-82
2023/12/05 04:30:44;;;;;;;26.43;6.30;;;4.20;99.90;;;;;;5107922;28;20183;-82
2023/12/05 04:33:10;;;;;;;27.83;7.67;;;4.30;99.90;;;;;;5107641;28;20198;-82
2023/12/05 04:35:38;;;;;;;29.60;8.40;;;4.30;99.90;;;;;;5107213;28;20190;-82
2023/12/05 04:38:04;;;;;;;38.42;7.70;;;4.30;99.90;;;;;;5107124;28;20164;-82
2023/12/05 04:40:30;;;;;;;38.83;7.77;;;4.30;99.90;;;;;;5106058;28;20686;-82
2023/12/05 04:45:23;;;;;;;28.00;7.22;;;4.30;99.90;;;;;;5101747;28;20696;-82
2023/12/05 04:47:49;;;;;;;28.03;7.33;;;4.40;99.90;;;;;;5107046;28;20189;-82
2023/12/05 04:50:14;;;;;;;28.93;6.67;;;4.30;99.90;;;;;;5088485;28;20164;-82
2023/12/05 04:52:40;;;;;;;26.97;6.43;;;4.30;99.90;;;;;;5106478;28;20633;-82
2023/12/05 04:55:06;;;;;;;26.60;7.10;;;4.30;99.90;;;;;;5105888;28;20180;-82
2023/12/05 04:57:32;;;;;;;29.95;6.95;;;4.40;99.90;;;;;;5105899;28;20188;-82
2023/12/05 04:59:57;;;;;;;27.80;7.00;;;4.30;99.90;;;;;;5106050;28;20202;-83
2023/12/05 05:02:23;;;;;;;33.30;8.73;;;4.30;99.90;;;;;;5087596;28;20171;-83
2023/12/05 05:04:49;;;;;;;29.67;7.53;;;4.40;99.90;;;;;;5105917;28;20717;-83
2023/12/05 05:07:14;;;;;;;27.70;7.30;;;4.40;99.90;;;;;;5087875;28;20402;-83
2023/12/05 05:09:41;;;;;;;27.10;6.20;;;4.40;99.90;;;;;;5088270;28;20172;-83
2023/12/05 05:12:10;;;;;;;29.77;7.80;;;4.40;99.90;;;;;;5087497;28;20174;-83
2023/12/05 05:14:36;;;;;;;28.70;7.25;;;4.40;99.90;;;;;;5088603;28;20236;-83
2023/12/05 05:17:03;;;;;;;28.43;6.10;;;4.50;99.90;;;;;;5088156;28;20688;-83
2023/12/05 05:19:33;;;;;;;26.67;6.65;;;4.50;99.90;;;;;;5088449;28;20202;-83
2023/12/05 05:21:58;;;;;;;27.77;6.93;;;4.50;99.90;;;;;;5106534;28;20223;-83
2023/12/05 05:24:24;;;;;;;28.13;6.37;;;4.60;99.90;;;;;;5106317;28;20176;-83
2023/12/05 05:26:53;;;;;;;29.47;6.97;;;4.60;99.90;;;;;;5088766;28;20225;-83
2023/12/05 05:29:19;;;;;;;28.05;6.15;;;4.60;99.90;;;;;;5044379;28;20201;-83
2023/12/05 05:31:45;;;;;;;27.33;6.17;;;4.60;99.90;;;;;;5028196;28;20170;-84
2023/12/05 05:34:11;;;;;;;32.87;6.47;;;4.60;99.90;;;;;;5028143;28;20198;-83
2023/12/05 05:36:36;;;;;;;29.80;7.90;;;4.60;99.90;;;;;;5045999;28;20221;-84
2023/12/05 05:39:05;;;;;;;27.80;7.13;;;4.60;99.90;;;;;;5028565;28;20196;-84
2023/12/05 05:41:30;;;;;;;31.90;7.05;;;4.60;99.90;;;;;;5028892;28;20524;-84
2023/12/05 05:43:56;;;;;;;28.53;6.40;;;4.60;99.90;;;;;;5046077;28;20188;-84
2023/12/05 05:46:21;;;;;;;29.17;7.67;;;4.60;99.90;;;;;;5045255;28;20205;-84
2023/12/05 05:48:47;;;;;;;29.27;7.07;;;4.60;99.90;;;;;;5045704;28;20166;-84
2023/12/05 05:51:13;;;;;;;29.80;7.07;;;4.60;99.90;;;;;;5045800;28;20177;-84
2023/12/05 05:53:38;;;;;;;27.80;7.30;;;4.70;99.90;;;;;;5044908;28;20213;-84
2023/12/05 05:56:05;;;;;;;29.07;7.47;;;4.70;99.90;;;;;;5044841;28;20717;-84
2023/12/05 05:58:32;;;;;;;28.42;7.07;;;4.70;99.90;;;;;;5045465;28;20174;-84
2023/12/05 06:00:57;;;;;;;30.88;6.43;;;4.70;99.90;;;;;;5045088;28;20208;-84
2023/12/05 06:03:24;;;;;;;28.00;6.57;;;4.70;99.90;;;;;;5045124;28;20193;-84
2023/12/05 06:05:49;;;;;;;28.00;6.78;;;4.70;99.90;;;;;;5045306;28;20184;-84
2023/12/05 06:08:15;;;;;;;26.87;5.50;;;4.70;99.90;;;;;;5045516;28;20162;-84
2023/12/05 06:10:41;;;;;;;27.20;6.10;;;4.80;99.90;;;;;;5046332;28;20176;-84
2023/12/05 06:13:07;;;;;;;31.42;6.40;;;4.80;99.90;;;;;;5047417;28;20631;-84
2023/12/05 06:15:33;;;;;;;25.30;5.40;;;4.70;99.90;;;;;;5046421;28;20192;-84
2023/12/05 06:18:01;;;;;;;27.77;5.97;;;4.70;99.90;;;;;;5048065;28;20211;-84
2023/12/05 06:20:27;;;;;;;29.92;6.18;;;4.80;99.90;;;;;;5047771;28;20193;-84
2023/12/05 06:22:53;;;;;;;25.60;6.07;;;4.80;99.90;;;;;;5047508;28;20174;-84
2023/12/05 06:25:19;;;;;;;28.15;6.68;;;4.80;99.90;;;;;;5029165;28;20193;-84
2023/12/05 06:27:46;;;;;;;29.77;6.00;;;4.80;99.90;;;;;;5046052;28;20261;-84
2023/12/05 06:30:12;;;;;;;28.92;5.60;;;4.80;99.90;;;;;;5046329;28;20639;-84
2023/12/05 06:32:37;;;;;;;28.42;6.68;;;4.80;99.90;;;;;;5046623;28;20249;-84
2023/12/05 06:35:03;;;;;;;28.40;6.37;;;4.80;99.90;;;;;;5046481;28;20261;-83
2023/12/05 06:37:29;;;;;;;26.90;6.07;;;4.80;99.90;;;;;;5045729;28;20178;-83
2023/12/05 06:39:56;;;;;;;28.60;6.10;;;4.80;99.90;;;;;;5045924;28;20538;-83
2023/12/05 06:42:22;;;;;;;26.77;6.35;;;4.80;99.90;;;;;;5044686;28;20174;-83
2023/12/05 06:44:48;;;;;;;30.67;6.37;;;4.80;99.90;;;;;;5044902;28;20205;-84
2023/12/05 06:47:13;;;;;;;30.33;6.63;;;4.90;99.90;;;;;;5027276;28;20162;-83
2023/12/05 06:49:42;;;;;;;29.00;6.13;;;4.90;99.90;;;;;;5045597;28;20173;-84
2023/12/05 06:52:11;;;;;;;27.73;6.50;;;4.90;99.90;;;;;;5028964;28;20654;-84
2023/12/05 06:54:37;;;;;;;29.98;6.38;;;4.90;99.90;;;;;;5028104;28;20223;-84
2023/12/05 06:57:03;;;;;;;29.45;7.03;;;4.90;99.90;;;;;;5029494;28;20162;-84
2023/12/05 06:59:29;;;;;;;30.35;6.18;;;4.90;99.90;;;;;;5045769;28;20655;-84
2023/12/05 07:01:55;;;;;;;27.90;5.50;;;5.00;99.90;;;;;;5045081;28;20170;-84
2023/12/05 07:04:21;;;;;;;28.80;6.60;;;5.00;99.90;;;;;;5028021;28;20198;-83
2023/12/05 07:06:47;;;;;;;27.90;5.37;;;5.00;99.90;;;;;;5028543;28;20190;-83
2023/12/05 07:09:13;;;;;;;27.43;5.40;;;5.00;99.90;;;;;;5045775;28;20427;-83
2023/12/05 07:11:39;;;;;;;29.73;5.72;;;5.00;99.90;;;;;;5045299;28;20666;-83
2023/12/05 07:14:05;;;;;;;29.00;5.33;;;5.00;99.90;;;;;;5028180;28;20276;-83
2023/12/05 07:16:30;;;;;;;27.25;5.88;;;5.10;99.90;;;;;;5045186;28;20157;-83
2023/12/05 07:18:56;;;;;;;28.00;5.67;;;5.10;99.90;;;;;;5043274;28;20540;-83
2023/12/05 07:21:22;;;;;;;29.15;6.32;;;5.10;99.90;;;;;;5022729;28;20219;-83
2023/12/05 07:23:48;;;;;;;27.97;6.40;;;5.10;99.90;;;;;;5021961;28;20655;-83
2023/12/05 07:26:14;;;;;;;29.80;6.37;;;5.10;99.90;;;;;;5039946;28;20169;-83
2023/12/05 07:28:39;;;;;;;27.57;6.10;;;5.10;99.90;;;;;;5039719;28;20252;-83
2023/12/05 07:31:05;;;;;;;28.67;6.43;;;5.10;99.90;;;;;;5040417;28;20241;-83
2023/12/05 07:33:31;;;;;;;28.23;6.43;;;5.10;99.90;;;;;;5039443;28;20181;-83
2023/12/05 07:35:57;;;;;;;25.07;4.53;;;5.10;99.90;;;;;;5021596;28;20170;-82
2023/12/05 07:38:23;;;;;;;26.38;4.88;;;5.20;99.90;;;;;;5021208;28;20766;-83
2023/12/05 07:40:52;;;;;;;27.73;4.77;;;5.20;99.90;;;;;;5021357;28;20190;-82
2023/12/05 07:43:18;;;;;;;26.52;4.72;;;5.20;99.90;;;;;;5037973;28;20300;-82
2023/12/05 07:45:43;;;;;;;25.50;4.03;;;5.20;99.90;;;;;;5020757;28;20185;-82
2023/12/05 07:48:09;;;;;;;25.37;3.67;;;5.30;99.90;;;;;;5038716;28;20257;-82
2023/12/05 07:50:35;;;;;;;26.80;5.10;;;5.30;99.90;;;;;;5038490;28;20196;-82
2023/12/05 07:53:01;;;;;;;26.50;5.57;;;5.30;99.90;;;;;;5038460;28;20240;-82
2023/12/05 07:55:27;;;;;;;27.37;5.00;;;5.40;99.90;;;;;;5038843;28;20212;-83
2023/12/05 07:57:52;;;;;;;28.97;5.00;;;5.40;99.90;;;;;;5020638;28;20166;-82
2023/12/05 08:00:19;;;;;;;26.30;5.10;;;5.40;99.90;;;;;;5038799;28;20185;-82
2023/12/05 08:02:45;;;;;;;28.23;5.45;;;5.50;99.90;;;;;;5020416;28;20639;-82
2023/12/05 08:05:11;;;;;;;26.58;4.85;;;5.50;99.90;;;;;;5037826;28;20200;-82
2023/12/05 08:07:37;;;;;;;29.70;6.53;;;5.50;99.90;;;;;;5020906;28;20166;-82
2023/12/05 08:10:05;;;;;;;29.98;5.00;;;5.50;99.90;;;;;;5038296;28;20405;-82
2023/12/05 08:12:30;;;;;;;27.48;4.78;;;5.60;99.90;;;;;;5038487;28;20169;-82
2023/12/05 08:14:57;;;;;;;25.67;4.30;;;5.60;99.90;;;;;;5041491;28;20284;-82
2023/12/05 08:17:22;;;;;;;28.55;4.60;;;5.60;99.90;;;;;;5042655;28;20199;-82
2023/12/05 08:19:48;;;;;;;24.70;3.80;;;5.70;99.90;;;;;;5024302;28;20193;-82
2023/12/05 08:22:14;;;;;;;26.00;4.30;;;5.70;99.90;;;;;;5042804;28;20166;-82
2023/12/05 08:24:40;;;;;;;26.03;4.07;;;5.70;99.90;;;;;;5042959;28;20261;-82
2023/12/05 08:27:06;;;;;;;25.60;4.00;;;5.70;99.90;;;;;;5042309;28;20578;-82
2023/12/05 08:29:31;;;;;;;27.40;4.60;;;5.80;99.90;;;;;;5042994;28;20220;-82
2023/12/05 08:31:57;;;;;;;31.07;4.10;;;5.80;99.90;;;;;;5042260;28;20229;-82
2023/12/05 08:34:23;;;;;;;25.60;3.90;;;5.80;99.90;;;;;;5042897;28;20190;-82
2023/12/05 08:36:49;;;;;;;27.40;4.00;;;5.90;99.90;;;;;;5161248;22;20219;-82
2023/12/05 08:39:14;;;;;;;28.83;4.50;;;5.90;99.90;;;;;;5190548;22;20223;-82
2023/12/05 08:41:40;;;;;;;27.57;4.10;;;5.90;99.90;;;;;;5141794;22;20306;-82
2023/12/05 08:44:06;;;;;;;26.40;4.23;;;6.00;99.90;;;;;;5062420;28;20189;-82
2023/12/05 08:46:32;;;;;;;25.97;4.47;;;6.00;99.90;;;;;;5118984;22;20168;-84
2023/12/05 08:51:26;;;;;;;30.67;4.70;;;6.10;99.90;;;;;;5099858;28;20202;-82
2023/12/05 08:53:51;;;;;;;27.60;4.20;;;6.10;99.90;;;;;;5102696;28;20179;-82
2023/12/05 08:56:17;;;;;;;31.10;4.10;;;6.10;99.90;;;;;;5103013;28;20629;-81
2023/12/05 08:58:43;;;;;;;27.47;3.70;;;6.20;99.90;;;;;;5102538;28;20211;-81
2023/12/05 09:01:11;;;;;;;25.10;2.67;;;6.20;99.90;;;;;;5101870;28;20188;-81
2023/12/05 09:03:37;;;;;;;26.48;3.83;;;6.20;99.90;;;;;;5084090;28;20214;-81
2023/12/05 09:06:03;;;;;;;27.47;4.10;;;6.20;99.90;;;;;;5103217;28;20164;-81
2023/12/05 09:08:29;;;;;;;26.30;3.70;;;6.30;99.90;;;;;;5102461;28;20398;-81
2023/12/05 09:10:57;;;;;;;28.40;3.60;;;6.20;99.90;;;;;;5102676;28;20406;-81
2023/12/05 09:13:23;;;;;;;26.35;3.40;;;6.30;99.90;;;;;;5084929;28;20485;-81
2023/12/05 09:15:49;;;;;;;26.83;3.15;;;6.30;99.90;;;;;;5102155;28;20164;-81
2023/12/05 09:18:15;;;;;;;26.53;3.50;;;6.30;99.90;;;;;;5102221;28;20233;-81
2023/12/05 09:20:41;;;;;;;28.70;4.27;;;6.40;99.90;;;;;;5083771;28;20494;-81
2023/12/05 09:23:07;;;;;;;26.80;4.05;;;6.40;99.90;;;;;;5101843;28;20420;-81
2023/12/05 09:25:32;;;;;;;28.37;3.70;;;6.40;99.90;;;;;;5083467;28;20188;-81
2023/12/05 09:27:58;;;;;;;28.20;3.73;;;6.40;99.90;;;;;;5101862;28;20160;-81
2023/12/05 09:30:24;;;;;;;27.37;3.57;;;6.40;99.90;;;;;;5102005;28;20191;-81
2023/12/05 09:32:50;;;;;;;27.50;3.50;;;6.40;99.90;;;;;;5084101;28;20225;-81
2023/12/05 09:35:19;;;;;;;27.00;3.00;;;6.50;99.90;;;;;;5102181;28;20192;-81
2023/12/05 09:37:44;;;;;;;25.63;2.92;;;6.50;99.90;;;;;;5101154;28;20583;-81
2023/12/05 09:40:10;;;;;;;26.97;3.07;;;6.50;99.90;;;;;;5101153;28;20187;-81
2023/12/05 09:42:37;;;;;;;28.55;3.88;;;6.60;99.90;;;;;;5101682;28;20164;-82
2023/12/05 09:45:07;;;;;;;27.63;3.53;;;6.60;99.90;;;;;;5083176;28;20192;-82
2023/12/05 09:47:34;;;;;;;31.15;3.45;;;6.70;99.90;;;;;;5101652;28;20160;-81
2023/12/05 09:50:03;;;;;;;27.63;3.63;;;6.70;99.90;;;;;;5101169;28;20202;-82
2023/12/05 09:52:30;;;;;;;28.30;3.65;;;6.80;99.90;;;;;;5082873;28;20187;-82
2023/12/05 09:54:58;;;;;;;27.85;3.60;;;6.80;99.90;;;;;;5100798;28;20188;-82
2023/12/05 09:57:27;;;;;;;30.55;3.08;;;6.80;99.90;;;;;;5100991;28;20160;-82
2023/12/05 09:59:53;;;;;;;27.00;3.17;;;6.90;99.90;;;;;;5101638;28;20680;-82
2023/12/05 10:02:20;;;;;;;27.37;3.33;;;6.90;99.90;;;;;;5083024;28;20171;-82
2023/12/05 10:04:49;;;;;;;26.92;2.83;;;7.00;99.90;;;;;;5083278;28;20188;-82
2023/12/05 10:07:16;;;;;;;27.35;4.00;;;7.10;99.90;;;;;;5101187;28;20209;-82
2023/12/05 10:09:42;;;;;;;26.85;2.75;;;7.10;99.90;;;;;;5100467;28;20168;-82
2023/12/05 10:12:10;;;;;;;27.00;2.95;;;7.10;99.90;;;;;;5081840;28;20189;-82
2023/12/05 10:14:37;;;;;;;27.95;3.17;;;7.10;99.90;;;;;;5101589;28;20188;-82
2023/12/05 10:17:04;;;;;;;27.98;3.13;;;7.20;99.90;;;;;;5100450;28;20164;-82
2023/12/05 10:19:31;;;;;;;28.90;3.63;;;7.20;99.90;;;;;;5100338;28;20245;-82
2023/12/05 10:21:58;;;;;;;28.73;3.75;;;7.30;99.90;;;;;;5082889;28;20171;-82
2023/12/05 10:24:23;;;;;;;28.38;3.65;;;7.30;99.90;;;;;;5100185;28;20182;-82
2023/12/05 10:26:49;;;;;;;28.90;3.03;;;7.40;99.90;;;;;;5100084;28;20155;-82
2023/12/05 10:29:16;;;;;;;29.13;3.40;;;7.50;99.90;;;;;;5100893;28;20242;-82
2023/12/05 10:31:42;;;;;;;28.02;3.60;;;7.60;99.90;;;;;;5099828;28;20157;-82
2023/12/05 10:34:08;;;;;;;27.55;3.00;;;7.60;99.90;;;;;;5100422;28;20176;-82
2023/12/05 10:36:37;;;;;;;30.42;4.25;;;7.70;99.90;;;;;;5099336;28;20170;-82
2023/12/05 10:39:05;;;;;;;33.15;3.30;;;7.70;99.90;;;;;;5099891;28;20152;-82
2023/12/05 10:41:31;;;;;;;28.90;3.20;;;7.70;99.90;;;;;;5081584;28;20209;-82
2023/12/05 10:43:56;;;;;;;27.70;3.20;;;7.70;99.90;;;;;;5100424;28;20259;-82
2023/12/05 10:46:28;;;;;;;26.20;2.70;;;7.80;99.90;;;;;;5100059;28;20167;-81
2023/12/05 10:48:55;;;;;;;26.30;2.50;;;7.80;99.90;;;;;;5099993;28;20164;-82
2023/12/05 10:51:25;;;;;;;25.75;2.45;;;7.70;99.90;;;;;;5080918;28;20300;-81
2023/12/05 10:53:53;;;;;;;26.65;2.35;;;7.60;99.90;;;;;;5099115;28;20203;-81
2023/12/05 10:56:18;;;;;;;26.38;2.25;;;7.60;99.90;;;;;;5100100;28;20170;-81
2023/12/05 10:58:45;;;;;;;26.93;2.20;;;7.50;99.90;;;;;;5081298;28;20254;-81
2023/12/05 11:01:12;;;;;;;28.42;2.70;;;7.50;99.90;;;;;;5099542;28;20195;-81
2023/12/05 11:03:39;;;;;;;27.20;1.92;;;7.50;99.90;;;;;;5098860;28;20180;-81
2023/12/05 11:06:06;;;;;;;25.63;1.92;;;7.50;99.90;;;;;;5100109;28;20625;-81
2023/12/05 11:08:33;;;;;;;26.30;2.10;;;7.50;99.90;;;;;;5100079;28;20164;-81
2023/12/05 11:11:00;;;;;;;25.10;1.80;;;7.50;99.90;;;;;;5100139;28;20163;-81
2023/12/05 11:13:27;;;;;;;27.20;2.13;;;7.60;99.90;;;;;;5099372;28;20166;-81
2023/12/05 11:15:57;;;;;;;25.00;1.60;;;7.60;99.90;;;;;;5082060;28;20179;-81
2023/12/05 11:18:43;;;;;;;24.73;1.90;;;7.60;99.90;;;;;;5099873;28;20694;-81
2023/12/05 11:21:14;;;;;;;25.73;1.70;;;7.60;99.90;;;;;;5099441;28;20175;-81
2023/12/05 11:23:55;;;;;;;25.88;2.25;;;7.50;99.90;;;;;;5098995;28;20205;-81
2023/12/05 11:26:49;;;;;;;25.63;1.77;;;7.60;99.90;;;;;;5099135;28;20655;-81
2023/12/05 11:29:52;;;;;;;24.80;1.70;;;7.50;99.90;;;;;;5099351;28;20141;-81
2023/12/05 11:32:22;;;;;;;25.27;2.03;;;7.50;99.90;;;;;;5099055;28;20163;-81
2023/12/05 11:34:55;;;;;;;24.80;1.70;;;7.50;99.90;;;;;;5099618;28;20188;-81
2023/12/05 11:37:52;;;;;;;27.15;1.90;;;7.50;99.90;;;;;;5099907;28;20148;-81
2023/12/05 11:40:18;;;;;;;24.80;1.48;;;7.50;99.90;;;;;;5081211;28;20183;-81
2023/12/05 11:45:22;;;;;;;26.02;1.83;;;7.50;99.90;;;;;;5154140;22;20232;-81
2023/12/05 11:47:50;;;;;;;25.77;2.20;;;7.50;99.90;;;;;;5060204;28;20175;-81
2023/12/05 11:50:16;;;;;;;25.83;2.15;;;7.40;99.90;;;;;;5083004;28;20173;-81
2023/12/05 11:52:42;;;;;;;24.70;1.70;;;7.40;99.90;;;;;;5082339;28;20176;-81
2023/12/05 11:55:11;;;;;;;25.53;1.70;;;7.40;99.90;;;;;;5083204;28;20935;-81
2023/12/05 11:57:37;;;;;;;24.38;1.73;;;7.50;99.90;;;;;;5064362;28;20441;-81
2023/12/05 12:00:03;;;;;;;25.20;1.60;;;7.50;99.90;;;;;;5065137;28;20193;-81
2023/12/05 12:02:32;;;;;;;24.33;1.40;;;7.50;99.90;;;;;;5064597;28;20251;-81
2023/12/05 12:05:06;;;;;;;26.10;1.85;;;7.40;99.90;;;;;;5082005;28;20222;-81
2023/12/05 12:07:43;;;;;;;23.95;1.30;;;7.40;99.90;;;;;;5081447;28;20455;-82
2023/12/05 12:10:16;;;;;;;24.33;1.48;;;7.40;99.90;;;;;;5063853;28;20168;-82
2023/12/05 12:12:51;;;;;;;23.60;1.30;;;7.40;99.90;;;;;;5063654;28;20260;-82
2023/12/05 12:15:21;;;;;;;23.73;1.50;;;7.40;99.90;;;;;;5080751;28;20180;-82
2023/12/05 12:17:48;;;;;;;23.48;1.20;;;7.40;99.90;;;;;;5081047;28;20231;-82
2023/12/05 12:20:17;;;;;;;24.08;1.40;;;7.50;99.90;;;;;;5081176;28;20185;-82
2023/12/05 12:22:49;;;;;;;23.15;1.48;;;7.40;99.90;;;;;;5081197;28;20633;-82
2023/12/05 12:25:16;;;;;;;24.70;1.25;;;7.50;99.90;;;;;;5081174;28;20188;-82
2023/12/05 12:27:43;;;;;;;23.77;1.48;;;7.50;99.90;;;;;;5063167;28;20543;-82
2023/12/05 12:30:13;;;;;;;23.75;1.30;;;7.50;99.90;;;;;;5081165;28;20249;-82
2023/12/05 12:33:09;;;;;;;25.38;1.23;;;7.40;99.90;;;;;;5081368;28;20153;-82
2023/12/05 12:35:35;;;;;;;24.60;1.40;;;7.30;99.90;;;;;;5081483;28;20184;-82
2023/12/05 12:38:03;;;;;;;23.77;1.33;;;7.30;99.90;;;;;;5080615;28;20603;-82
2023/12/05 12:40:33;;;;;;;24.30;1.50;;;7.20;99.90;;;;;;5080962;28;20210;-82
2023/12/05 12:42:59;;;;;;;23.38;1.05;;;7.20;99.90;;;;;;5081349;28;20633;-82
2023/12/05 12:45:27;;;;;;;24.47;1.53;;;7.30;99.90;;;;;;5080695;28;20200;-82
2023/12/05 12:47:53;;;;;;;23.80;1.58;;;7.30;99.90;;;;;;5062982;28;20776;-82
2023/12/05 12:50:19;;;;;;;23.10;1.17;;;7.30;99.90;;;;;;5080798;28;20156;-82
2023/12/05 12:52:46;;;;;;;22.73;1.20;;;7.30;99.90;;;;;;5146685;22;20736;-84
2023/12/05 12:55:12;;;;;;;23.48;1.33;;;7.30;99.90;;;;;;5060852;28;20185;-84
2023/12/05 12:57:40;;;;;;;23.40;1.50;;;7.30;99.90;;;;;;5060770;28;20165;-84
2023/12/05 13:00:09;;;;;;;23.27;1.40;;;7.30;99.90;;;;;;5042341;28;20193;-84